Date,TemperatureHighF,TemperatureAvgF,TemperatureLowF,DewpointHighF,DewpointAvgF,DewpointLowF,HumidityHigh,HumidityAvg,HumidityLow,PressureMaxIn,PressureMinIn,WindSpeedMaxMPH,WindSpeedAvgMPH,GustSpeedMaxMPH,PrecipitationSumIn
2013-10-1,59.7,53.4,48.0,53.4,51.1,47.5,99,92,72,29.89,29.80,17,8,17,0.02
2013-10-2,58.5,54.7,50.9,58.2,54.4,47.2,99,99,99,29.84,29.72,18,6,18,0.20
2013-10-3,65.8,60.8,57.2,64.7,60.5,56.9,99,99,99,29.75,29.55,24,7,24,0.65
2013-10-4,62.6,57.2,53.2,62.3,56.9,53.0,99,99,99,29.87,29.55,14,6,14,0.04
2013-10-5,62.1,55.1,49.8,60.7,54.7,49.6,99,99,93,30.11,29.86,21,10,21,0.01
2013-10-6,62.6,57.8,55.0,62.3,57.6,54.6,99,99,99,30.12,30.06,22,14,22,0.04
2013-10-7,62.6,59.2,57.7,61.4,58.9,57.5,99,99,99,30.09,29.99,31,17,31,0.06
2013-10-8,59.0,54.3,49.8,58.7,53.9,49.6,99,99,91,30.22,30.00,30,12,30,0.11
2013-10-9,52.9,48.2,39.4,50.1,44.8,35.3,99,88,68,30.23,30.03,28,10,28,0.04
2013-10-10,55.8,44.9,37.2,43.6,38.1,33.6,98,78,51,30.49,30.23,12,4,12,0.00
2013-10-11,55.0,43.2,34.9,47.8,41.0,33.6,99,92,76,30.56,30.47,14,3,14,0.00
2013-10-12,58.1,48.7,41.4,50.7,46.3,40.7,99,92,73,30.53,30.30,17,6,17,0.00
2013-10-13,56.1,49.1,40.1,51.0,47.1,39.8,99,93,75,30.31,30.07,16,5,16,0.00
2013-10-14,54.5,50.3,46.8,54.2,50.0,46.5,99,99,99,30.09,29.96,16,4,16,0.00
2013-10-15,57.9,49.6,45.1,52.2,48.0,44.9,99,94,79,30.00,29.94,14,4,14,0.00
2013-10-16,51.8,46.7,42.1,51.1,46.4,41.6,99,99,97,29.99,29.63,19,6,19,0.21
2013-10-17,54.9,48.8,45.9,53.3,48.6,42.9,99,99,99,29.99,29.68,12,2,12,0.44
2013-10-18,52.2,49.0,44.2,51.7,48.8,44.0,99,99,99,30.00,29.66,17,7,17,0.13
2013-10-19,56.7,53.5,51.6,56.2,53.2,49.0,99,99,99,29.66,29.44,21,4,21,0.33
2013-10-20,60.3,53.5,50.7,60.0,53.2,50.3,99,99,99,29.49,29.38,21,7,21,0.18
2013-10-21,55.6,52.0,50.2,55.3,51.8,49.4,99,99,99,29.52,29.26,19,7,19,0.30
2013-10-22,58.8,56.1,51.4,57.8,55.8,51.2,99,99,99,29.26,29.07,30,12,30,0.18
2013-10-23,57.4,50.9,44.4,56.0,50.3,42.1,99,98,82,29.62,28.99,29,14,29,0.11
2013-10-24,59.0,48.7,44.6,57.1,47.7,43.0,99,96,80,29.91,29.62,17,6,17,0.02
2013-10-25,61.0,51.8,46.9,58.7,51.5,46.3,99,99,99,29.84,29.31,29,12,29,0.19
2013-10-26,54.3,50.4,47.5,52.6,50.1,46.7,99,99,96,29.45,29.14,46,12,46,0.08
2013-10-27,52.9,49.4,47.8,52.6,49.1,46.0,99,99,99,29.15,28.82,37,19,37,0.33
2013-10-28,52.0,47.4,42.6,49.4,47.2,42.4,99,99,99,29.40,28.90,18,9,18,0.14
2013-10-29,53.1,44.3,40.5,52.6,44.0,40.2,99,99,89,29.93,29.40,21,7,21,0.06
2013-10-30,60.1,46.8,41.0,52.3,46.6,39.3,99,99,99,29.94,29.59,37,12,37,0.18
2013-10-31,51.6,47.2,42.8,51.2,46.9,42.5,99,99,90,29.83,29.61,31,17,31,0.08